• Join FlightAware (Why Join?)
  • Login
  • US Flag 
12:00AM EDT


 

Airport Tracker/Info


-or-


 

Live Flight TrackerFlight Track Log ✈ UAL139 ✈ 08-Feb-2014 ✈ KDEN - RJAA / NRT

Flight Track Log - Related Links

Times and Time Zones

All times are in EST time to prevent confusion due to time zone crossing. See the UAL139 flight status page for this flight to view local times or setup timezone preferences in your user account.

Time Position Orientation Groundspeed Altitude Reporting Facility
EST Latitude Longitude Course Direction KTS MPH feet Rate Location/Type
02:43PM 39.8408 -104.6983 269° West 130 150 5,500  Level FlightAware ADS-B (KBJC)
02:44PM 39.8409 -104.7193 270° West 190 219 5,600 1,680 Climbing FlightAware ADS-B (KBJC)
02:44PM 39.8416 -104.7455 272° West 178 205 6,800 2,220 Climbing FlightAware ADS-B (KBJC)
02:45PM 39.8493 -104.7619 301° West 206 237 7,200 1,200 Climbing FlightAware ADS-B (KBJC)
02:45PM 39.8523 -104.7645 326° Northwest 217 250 7,300 1,500 Climbing FlightAware ADS-B (KEIK)
02:45PM 39.8615 -104.7686 341° North 257 296 7,800 1,740 Climbing FlightAware ADS-B (KBJC)
02:45PM 39.9018 -104.7576 12° North 277 319 8,500 2,280 Climbing FlightAware ADS-B (KEIK)
02:46PM 39.9261 -104.7479 17° North 282 325 9,400 2,760 Climbing FlightAware ADS-B (KEIK)
02:46PM 39.9628 -104.7343 16° North 289 333 10,800 1,920 Climbing FlightAware ADS-B (KBJC)
02:47PM 39.9995 -104.7209 16° North 318 366 11,400 1,260 Climbing FlightAware ADS-B (KEIK)
02:47PM 40.0531 -104.7020 15° North 344 396 12,100 1,620 Climbing FlightAware ADS-B (KBJC)
02:47PM 40.0819 -104.7020 360° North 340 391 12,700 2,520 Climbing FlightAware ADS-B (KBJC)
02:48PM 40.1335 -104.7134 350° North 339 390 14,400 2,700 Climbing FlightAware ADS-B (KEIK)
02:49PM 40.1826 -104.7241 351° North 339 390 15,700 2,520 Climbing FlightAware ADS-B (KBJC)
02:49PM 40.2332 -104.7349 351° North 338 389 17,100 2,400 Climbing FlightAware ADS-B (KEIK)
02:50PM 40.2919 -104.7470 351° North 343 395 18,500 2,100 Climbing FlightAware ADS-B (KBJC)
02:50PM 40.3551 -104.7601 351° North 351 404 20,000 2,220 Climbing FlightAware ADS-B (KEIK)
02:51PM 40.4113 -104.7714 351° North 350 403 21,300 2,220 Climbing FlightAware ADS-B (KBJC)
02:51PM 40.4575 -104.7813 351° North 351 404 22,300 1,920 Climbing FlightAware ADS-B (KEIK)
02:52PM 40.5161 -104.7939 351° North 355 409 23,500 2,040 Climbing FlightAware ADS-B (KBJC)
02:53PM 40.5699 -104.8051 351° North 353 406 24,600 1,980 Climbing FlightAware ADS-B (KBJC)
02:53PM 40.6227 -104.8162 351° North 348 400 25,700 1,800 Climbing FlightAware ADS-B (KEIK)
02:54PM 40.6810 -104.8283 351° North 348 400 26,800 1,500 Climbing FlightAware ADS-B (KBJC)
02:55PM 40.7430 -104.8414 351° North 354 407 27,800 1,320 Climbing FlightAware ADS-B (KEIK)
02:55PM 40.7873 -104.8532 349° North 349 402 28,300 1,200 Climbing FlightAware ADS-B (KBJC)
02:56PM 40.8436 -104.8794 341° North 349 402 29,100 1,200 Climbing FlightAware ADS-B (KEIK)
02:56PM 40.9103 -104.9118 340° North 353 406 30,000 1,140 Climbing FlightAware ADS-B (KEIK)
02:57PM 40.9574 -104.9349 340° North 357 411 30,600 1,380 Climbing FlightAware ADS-B
02:58PM 41.0276 -104.9693 340° North 351 404 31,800 1,800 Climbing FlightAware ADS-B
02:58PM 41.0515 -104.9811 340° North 346 398 32,900 1,620 Climbing FlightAware ADS-B
02:59PM 41.0427 -104.9768 160° South 348 400 33,400 900 Climbing FlightAware ADS-B (KBJC)
02:59PM 41.1602 -105.0349 340° North 345 397 33,900 480 Climbing FlightAware ADS-B
03:00PM 41.2247 -105.0668 340° North 344 396 34,000 60 Climbing FlightAware ADS-B (KEIK)
03:00PM 41.2875 -105.0979 340° North 344 396 34,000  Level FlightAware ADS-B (KEIK)
03:01PM 41.3430 -105.1255 339° North 345 397 34,000  Level FlightAware ADS-B (KEIK)
03:02PM 41.4012 -105.1545 340° North 341 392 34,000  Level FlightAware ADS-B (KEIK)
03:02PM 41.4696 -105.1886 339° North 341 392 34,000  Level FlightAware ADS-B (KEIK)
03:03PM 41.5301 -105.2189 339° North 342 394 34,000  Level FlightAware ADS-B (KEIK)
03:04PM 41.5848 -105.2509 336° Northwest 333 383 34,000  Level FlightAware ADS-B (KEIK)
03:04PM 41.6346 -105.2877 331° Northwest 333 383 34,000  Level FlightAware ADS-B (KEIK)
03:05PM 41.6938 -105.3314 331° Northwest 332 382 34,000  Level FlightAware ADS-B (KEIK)
03:06PM 41.7177 -105.3490 331° Northwest 331 381 34,000  Level FlightAware ADS-B (KEIK)
03:06PM 41.7971 -105.4079 331° Northwest 330 380 34,000  Level FlightAware ADS-B (KEIK)
03:07PM 41.8538 -105.4500 331° Northwest 328 377 34,000  Level FlightAware ADS-B (KEIK)
03:08PM 41.9073 -105.4899 331° Northwest 327 376 34,000  Level FlightAware ADS-B (KEIK)
03:09PM 41.9648 -105.5327 331° Northwest 327 376 34,000  Level FlightAware ADS-B (KEIK)
03:09PM 42.0172 -105.5718 331° Northwest 328 377 34,000  Level FlightAware ADS-B (KEIK)
03:10PM 42.0703 -105.6116 331° Northwest 330 380 34,000  Level FlightAware ADS-B (KEIK)
03:10PM 42.1179 -105.6473 331° Northwest 329 379 34,000  Level FlightAware ADS-B (KEIK)
03:11PM 42.1786 -105.6929 331° Northwest 330 380 34,000  Level FlightAware ADS-B (KEIK)
03:12PM 42.2284 -105.7305 331° Northwest 331 381 34,000  Level FlightAware ADS-B (KEIK)
03:13PM 42.2891 -105.7763 331° Northwest 334 384 34,000  Level FlightAware ADS-B (KEIK)
03:13PM 42.3426 -105.8168 331° Northwest 333 383 34,000  Level FlightAware ADS-B (KEIK)
03:14PM 42.3995 -105.8598 331° Northwest 330 380 34,000  Level FlightAware ADS-B (KEIK)
03:14PM 42.4379 -105.8890 331° Northwest 331 381 34,000  Level FlightAware ADS-B (KEIK)
03:15PM 42.4767 -105.9184 331° Northwest 330 380 34,000  Level FlightAware ADS-B (KEIK)
03:16PM 42.5110 -105.9446 331° Northwest 330 380 34,000  Level FlightAware ADS-B (KEIK)
03:17PM 42.6686 -106.0650 331° Northwest 331 381 34,000  Level FlightAware ADS-B (KEIK)
03:19PM 42.7740 -106.1460 331° Northwest 332 382 34,000  Level FlightAware ADS-B (KEIK)
03:19PM 42.8053 -106.1742 331° Northwest 330 380 34,000  Level Salt Lake Center
03:20PM 42.8578 -106.2128 332° Northwest 332 382 34,000  Level Denver Center
03:21PM 42.9358 -106.2706 332° Northwest 332 382 34,000  Level Denver Center
03:22PM 43.0256 -106.3406 330° Northwest 335 386 34,000  Level Denver Center
03:23PM 43.1039 -106.4003 331° Northwest 336 387 34,000  Level Denver Center
03:24PM 43.1803 -106.4617 330° Northwest 332 382 34,000  Level Denver Center
03:25PM 43.2711 -106.5328 330° Northwest 337 388 34,000  Level Denver Center
03:26PM 43.3492 -106.5928 331° Northwest 335 386 34,000  Level Denver Center
03:27PM 43.4397 -106.6656 330° Northwest 336 387 34,000  Level Denver Center
03:28PM 43.5189 -106.7275 330° Northwest 342 394 34,000  Level Denver Center
03:29PM 43.6100 -106.7997 330° Northwest 339 390 34,000  Level Denver Center
03:30PM 43.7269 -106.8950 330° Northwest 340 391 34,000  Level Salt Lake Center
03:31PM 43.7961 -106.9544 328° Northwest 337 388 34,000  Level Salt Lake Center
03:34PM 43.9811 -107.0994 331° Northwest 350 403 34,000  Level Salt Lake Center
03:35PM 44.0664 -107.1675 330° Northwest 352 405 34,000  Level Salt Lake Center
03:36PM 44.1500 -107.2347 330° Northwest 349 402 34,000  Level Salt Lake Center
03:37PM 44.2353 -107.3033 330° Northwest 354 407 34,000  Level Salt Lake Center
03:38PM 44.3192 -107.3744 329° Northwest 353 406 34,000  Level Salt Lake Center
03:40PM 44.4936 -107.5150 330° Northwest 365 420 34,000  Level Salt Lake Center
03:42PM 44.6853 -107.6728 330° Northwest 366 421 34,000  Level Salt Lake Center
03:43PM 44.7708 -107.7439 329° Northwest 362 417 34,000  Level Salt Lake Center
03:45PM 44.9364 -107.8808 330° Northwest 358 412 34,000  Level Salt Lake Center
03:46PM 45.0214 -107.9519 329° Northwest 358 412 34,000  Level Salt Lake Center
03:48PM 45.2097 -108.1119 329° Northwest 360 414 34,000  Level Salt Lake Center
03:49PM 45.2983 -108.1869 329° Northwest 372 428 34,000  Level Salt Lake Center
03:50PM 45.3867 -108.2617 329° Northwest 371 427 34,000  Level Salt Lake Center
03:51PM 45.4758 -108.3381 329° Northwest 375 432 34,000  Level Salt Lake Center
03:52PM 45.5656 -108.4147 329° Northwest 377 434 34,000  Level Salt Lake Center
03:53PM 45.6556 -108.4925 329° Northwest 378 435 34,000  Level Salt Lake Center
03:54PM 45.7472 -108.5692 330° Northwest 381 438 34,000  Level Salt Lake Center
03:55PM 45.8278 -108.6544 324° Northwest 360 414 34,000  Level Salt Lake Center
03:56PM 45.9086 -108.7872 311° West 369 425 34,000  Level Salt Lake Center
03:57PM 45.9750 -108.8947 312° West 363 418 34,000  Level Salt Lake Center
03:58PM 46.0422 -109.0044 311° West 366 421 34,000  Level Salt Lake Center
03:59PM 46.1094 -109.1128 312° West 365 420 34,000  Level Salt Lake Center
04:01PM 46.2442 -109.3347 311° West 368 423 34,000  Level Salt Lake Center
04:02PM 46.3119 -109.4467 311° West 369 425 34,000  Level Salt Lake Center
04:03PM 46.3794 -109.5603 311° West 372 428 34,000 420 Level Salt Lake Center
04:04PM 46.4589 -109.6983 310° West 375 432 34,900 900 Climbing Salt Lake Center
04:05PM 46.5253 -109.8103 311° West 369 425 35,900 720 Climbing Salt Lake Center
04:06PM 46.5925 -109.9228 311° West 368 423 36,400 540 Climbing Salt Lake Center
04:07PM 46.6603 -110.0381 311° West 374 430 37,000 480 Climbing Salt Lake Center
04:08PM 46.7308 -110.1550 311° West 378 435 37,400 300 Climbing Salt Lake Center
04:09PM 46.7992 -110.2731 310° West 381 438 37,700 240 Climbing Salt Lake Center
04:10PM 46.8706 -110.3925 311° West 388 447 38,000 60 Climbing Salt Lake Center
04:12PM 47.0086 -110.6342 311° West 386 444 38,000  Level Salt Lake Center
04:13PM 47.0786 -110.7556 310° West 389 448 38,000  Level Salt Lake Center
04:14PM 47.1481 -110.8772 310° West 389 448 38,000 -60 Level Salt Lake Center
04:15PM 47.2169 -110.9983 309° West 388 447 37,900  Descending Salt Lake Center
04:16PM 47.2299 -111.0261 309° West  Level FlightAware Approximate
04:16PM 47.2997 -111.1453 310° West 388 447 38,000  Level Salt Lake Center
04:18PM 47.3694 -111.2681 310° West 388 447 37,900  Descending Salt Lake Center
04:19PM 47.4381 -111.3900 310° West 385 443 38,000  Climbing Salt Lake Center
04:20PM 47.5033 -111.5181 307° West 385 443 37,900  Descending Salt Lake Center
04:21PM 47.5661 -111.6506 305° West 388 447 38,000  Climbing Salt Lake Center
04:23PM 47.6667 -111.9167 299° West 390 449 38,000  Level Edmonton Center
04:24PM 47.7167 -112.0333 303° West 370 426 38,000 -60 Level Edmonton Center
04:25PM 47.8147 -112.1711 317° Northwest 387 445 37,900 -60 Descending Salt Lake Center
04:26PM 47.8775 -112.3000 306° West 386 444 37,900  Level Salt Lake Center
04:27PM 47.9397 -112.4319 305° West 389 448 37,900  Level Salt Lake Center
04:29PM 48.0711 -112.7119 305° West 389 448 38,000  Climbing Salt Lake Center
04:30PM 48.1328 -112.8439 305° West 389 448 38,000  Level Salt Lake Center
04:32PM 48.2333 -113.0500 306° West 390 449 38,000  Level Vancouver Center
04:33PM 48.3192 -113.2472 303° West 397 457 38,000 -60 Level Salt Lake Center
04:34PM 48.3942 -113.4117 305° West 400 460 37,900  Descending Salt Lake Center
04:35PM 48.4569 -113.5497 304° West 402 463 38,000  Climbing Salt Lake Center
04:37PM 48.5333 -113.8167 293° West 400 460 38,000  Level Edmonton Center
04:38PM 48.6167 -113.8833 332° Northwest 400 460 38,000 -60 Level Vancouver Center
04:38PM 48.6694 -114.0208 300° West 402 463 37,900 -60 Descending Seattle Center
04:39PM 48.7317 -114.1622 304° West 405 466 37,900  Level Seattle Center
04:40PM 48.7933 -114.3014 304° West 403 464 37,900  Level Seattle Center
04:41PM 48.8539 -114.4414 303° West 401 461 38,000  Climbing Seattle Center
04:42PM 48.9167 -114.5819 304° West 403 464 38,000 -60 Level Seattle Center
04:43PM 48.9661 -114.6950 304° West 404 465 37,900  Descending Salt Lake Center
04:44PM 48.9667 -114.8000 271° West 410 472 38,000 60 Climbing Edmonton Center
04:45PM 49.0167 -114.9333 300° West 400 460 38,000  Level Edmonton Center
04:46PM 49.1000 -115.0833 310° West 410 472 38,000  Level Edmonton Center
04:47PM 49.1500 -115.2333 297° West 400 460 38,000  Level Edmonton Center
04:48PM 49.2333 -115.3333 322° Northwest 400 460 38,000  Level Vancouver Center
04:49PM 49.2833 -115.4500 303° West 400 460 38,000  Level Vancouver Center
04:50PM 49.3667 -115.5833 314° West 410 472 38,000  Level Vancouver Center
04:51PM 49.4167 -115.7833 291° West 400 460 38,000  Level Edmonton Center
04:52PM 49.4833 -115.9000 311° West 400 460 38,000  Level Edmonton Center
04:54PM 49.6500 -116.1833 312° West 410 472 38,000  Level Edmonton Center
04:55PM 49.7000 -116.3000 304° West 400 460 38,000  Level Edmonton Center
04:56PM 49.7833 -116.4500 311° West 410 472 38,000  Level Edmonton Center
04:57PM 49.8833 -116.5333 332° Northwest 410 472 38,000  Level Vancouver Center
04:58PM 49.9500 -116.6500 312° West 410 472 38,000  Level Vancouver Center
05:00PM 50.1081 -116.9508 309° West 413 475 38,000  Level Seattle Center
05:01PM 50.1808 -117.0853 310° West 409 471 38,000  Level Seattle Center
05:02PM 50.2167 -117.2667 287° West 410 472 38,000  Level Edmonton Center
05:03PM 50.3000 -117.4167 311° West 410 472 38,000  Level Edmonton Center
05:04PM 50.3667 -117.5333 312° West 410 472 38,000  Level Edmonton Center
05:05PM 50.4667 -117.6333 328° Northwest 410 472 38,000  Level Vancouver Center
05:06PM 50.5167 -117.8167 293° West 410 472 38,000  Level Edmonton Center
05:07PM 50.5833 -117.9500 308° West 410 472 38,000  Level Edmonton Center
05:08PM 50.6833 -118.0500 328° Northwest 420 483 38,000  Level Vancouver Center
05:09PM 50.7500 -118.2000 305° West 420 483 38,000  Level Vancouver Center
05:10PM 50.8333 -118.3167 319° Northwest 430 495 38,000  Level Vancouver Center
05:11PM 50.9000 -118.4667 305° West 430 495 38,000  Level Vancouver Center
05:12PM 50.9833 -118.6167 311° West 430 495 38,000  Level Vancouver Center
05:13PM 51.0333 -118.8167 292° West 430 495 38,000  Level Edmonton Center
05:15PM 51.1667 -119.1333 304° West 430 495 38,000  Level Edmonton Center
05:16PM 51.2500 -119.2667 315° West 430 495 38,000  Level Edmonton Center
05:17PM 51.3167 -119.4333 303° West 430 495 38,000  Level Edmonton Center
05:18PM 51.4333 -119.5333 332° Northwest 430 495 38,000  Level Vancouver Center
05:19PM 51.5000 -119.7000 303° West 440 506 38,000  Level Vancouver Center
05:20PM 51.5833 -119.8500 312° West 440 506 38,000  Level Vancouver Center
05:21PM 51.6500 -120.0000 306° West 440 506 38,000  Level Vancouver Center
05:23PM 51.8000 -120.2833 311° West 440 506 38,000  Level Vancouver Center
05:25PM 51.9333 -120.6500 301° West 440 506 38,000  Level Edmonton Center
05:26PM 52.0333 -120.7500 328° Northwest 440 506 38,000  Level Vancouver Center
05:27PM 52.1167 -120.9167 309° West 440 506 38,000  Level Vancouver Center
05:28PM 52.2000 -121.0667 312° West 440 506 38,000  Level Vancouver Center
05:29PM 52.2667 -121.2333 303° West 450 518 38,000  Level Vancouver Center
05:30PM 52.4000 -121.6000 301° West 440 506 38,000  Level Edmonton Center
05:32PM 52.5167 -121.7167 329° Northwest 440 506 38,000  Level Vancouver Center
05:33PM 52.5833 -121.8667 306° West 440 506 38,000  Level Vancouver Center
05:34PM 52.6667 -122.0000 316° Northwest 440 506 38,000  Level Vancouver Center
05:35PM 52.7333 -122.2000 299° West 440 506 38,000  Level Vancouver Center
05:36PM 52.8000 -122.3333 310° West 440 506 38,000  Level Vancouver Center
05:37PM 52.8833 -122.5000 310° West 440 506 38,000  Level Vancouver Center
05:38PM 52.9500 -122.6667 304° West 440 506 38,000  Level Vancouver Center
05:40PM 53.1000 -122.9833 308° West 450 518 38,000  Level Vancouver Center
05:41PM 53.2000 -123.1500 315° West 450 518 38,000  Level Vancouver Center
05:42PM 53.2833 -123.3167 310° West 450 518 38,000  Level Vancouver Center
05:43PM 53.3500 -123.4833 304° West 450 518 38,000  Level Vancouver Center
05:45PM 53.5000 -123.8167 307° West 450 518 38,000  Level Vancouver Center
05:46PM 53.5667 -124.0000 302° West 450 518 38,000  Level Vancouver Center
05:47PM 53.6500 -124.1667 310° West 450 518 38,000  Level Vancouver Center
05:48PM 53.7167 -124.3333 304° West 450 518 38,000  Level Vancouver Center
05:50PM 53.8667 -124.6667 307° West 460 529 38,000  Level Vancouver Center
05:51PM 53.9333 -124.8500 302° West 450 518 38,000  Level Vancouver Center
05:52PM 54.0000 -125.0167 304° West 450 518 38,000  Level Vancouver Center
05:53PM 54.0833 -125.1833 310° West 450 518 38,000  Level Vancouver Center
05:54PM 54.1500 -125.3667 302° West 450 518 38,000  Level Vancouver Center
05:55PM 54.2333 -125.5667 306° West 450 518 38,000  Level Vancouver Center
05:58PM 54.4500 -126.0833 306° West 450 518 38,000  Level Vancouver Center
05:59PM 54.5167 -126.2667 302° West 450 518 38,000  Level Vancouver Center
06:01PM 54.6667 -126.6167 307° West 460 529 38,000  Level Vancouver Center
06:02PM 54.7333 -126.8000 302° West 460 529 38,000  Level Vancouver Center
06:03PM 54.8000 -126.9833 302° West 450 518 38,000  Level Vancouver Center
06:04PM 54.8667 -127.1667 302° West 450 518 38,000  Level Vancouver Center
06:05PM 54.9500 -127.3333 311° West 450 518 38,000  Level Vancouver Center
06:06PM 55.0167 -127.5167 302° West 470 541 38,000  Level Vancouver Center
06:07PM 55.0833 -127.7000 302° West 460 529 38,000  Level Vancouver Center
06:08PM 55.1667 -127.8833 309° West 450 518 38,000  Level Vancouver Center
06:10PM 55.3000 -128.2833 300° West 450 518 38,000  Level Vancouver Center
06:11PM 55.3667 -128.4333 308° West 450 518 38,000  Level Vancouver Center
06:12PM 55.4333 -128.6500 299° West 450 518 38,000  Level Vancouver Center
06:13PM 55.5000 -128.8333 303° West 450 518 38,000  Level Vancouver Center
06:14PM 55.6000 -129.0833 305° West 460 529 38,000  Level Anchorage Center
06:15PM 55.6667 -129.2833 301° West 460 529 38,000  Level Anchorage Center
06:16PM 55.7333 -129.4667 303° West 460 529 38,000  Level Anchorage Center
06:17PM 55.8000 -129.6667 301° West 460 529 38,000  Level Anchorage Center
06:18PM 55.8667 -129.8500 303° West 460 529 38,000  Level Anchorage Center
06:19PM 55.9167 -130.0667 292° West 460 529 38,000  Level Anchorage Center
06:20PM 55.9500 -130.2667 287° West 460 529 38,000  Level Anchorage Center
06:21PM 55.9833 -130.5000 284° West 460 529 38,000  Level Anchorage Center
06:22PM 56.0167 -130.7167 285° West 460 529 38,000  Level Anchorage Center
06:24PM 56.0833 -131.1500 286° West 460 529 38,000  Level Anchorage Center
06:25PM 56.1000 -131.3500 279° West 450 518 38,000  Level Anchorage Center
06:26PM 56.1333 -131.5667 286° West 450 518 38,000  Level Anchorage Center
06:27PM 56.1667 -131.7833 286° West 450 518 38,000  Level Anchorage Center
06:28PM 56.2000 -132.0000 286° West 460 529 38,000  Level Anchorage Center
06:29PM 56.2333 -132.2167 286° West 450 518 38,000  Level Anchorage Center
06:30PM 56.2500 -132.4500 277° West 460 529 38,000  Level Anchorage Center
06:31PM 56.2833 -132.6667 286° West 460 529 38,000  Level Anchorage Center
06:32PM 56.3167 -132.8833 286° West 450 518 38,000 180 Level Anchorage Center
06:35PM 56.3833 -133.5000 281° West 460 529 38,700 360 Climbing Vancouver Center
06:35PM 56.4000 -133.5667 294° West 460 529 39,200 780 Climbing Anchorage Center
06:36PM 56.4167 -133.7833 278° West 460 529 40,000 360 Climbing Anchorage Center
06:37PM 56.4500 -134.0167 285° West 460 529 40,000  Level Anchorage Center
06:38PM 56.4667 -134.2333 278° West 460 529 40,000  Level Anchorage Center
06:39PM 56.5000 -134.4667 285° West 460 529 40,000  Level Anchorage Center
06:40PM 56.5333 -134.6833 286° West 450 518 40,000  Level Anchorage Center
06:41PM 56.5500 -134.9167 277° West 460 529 40,000  Level Anchorage Center
06:42PM 56.5667 -135.1333 278° West 450 518 40,000  Level Anchorage Center
06:43PM 56.6000 -135.3667 285° West 460 529 40,000  Level Anchorage Center
06:44PM 56.6167 -135.6000 277° West 460 529 40,000  Level Anchorage Center
06:45PM 56.6500 -135.8333 285° West 460 529 40,000  Level Anchorage Center
06:46PM 56.6667 -136.0667 278° West 460 529 40,000  Level Anchorage Center
06:47PM 56.6833 -136.3000 278° West 460 529 40,000  Level Anchorage Center
06:48PM 56.7167 -136.5333 285° West 460 529 40,000  Level Anchorage Center
06:49PM 56.7333 -136.7667 278° West 460 529 40,000  Level Anchorage Center
06:50PM 56.7500 -136.9833 278° West 460 529 40,000  Level Anchorage Center
06:51PM 56.7833 -137.2167 285° West 460 529 40,000  Level Anchorage Center
06:52PM 56.8000 -137.4500 278° West 460 529 40,000  Level Anchorage Center
06:53PM 56.8167 -137.6833 278° West 460 529 40,000  Level Anchorage Center
06:54PM 56.8333 -137.9167 278° West 470 541 40,000  Level Anchorage Center
06:55PM 56.8500 -138.1500 278° West 460 529 40,000  Level Anchorage Center
06:56PM 56.8667 -138.3833 278° West 460 529 40,000  Level Anchorage Center
06:57PM 56.9000 -138.6167 285° West 460 529 40,000  Level Anchorage Center
06:58PM 56.9167 -138.8500 278° West 460 529 40,000  Level Anchorage Center
06:59PM 56.9333 -139.0833 278° West 470 541 40,000  Level Anchorage Center
07:00PM 56.9500 -139.3167 278° West 460 529 40,000  Level Anchorage Center
07:01PM 56.9667 -139.5500 278° West 460 529 40,000  Level Anchorage Center
07:02PM 56.9833 -139.7833 278° West 460 529 40,000  Level Anchorage Center
07:03PM 57.0000 -140.0167 278° West 460 529 40,000  Level Anchorage Center
07:04PM 57.0167 -140.2500 278° West 460 529 40,000  Level Anchorage Center
07:05PM 57.0667 -140.5000 290° West 460 529 40,000  Level Anchorage Center
07:06PM 57.1000 -140.7333 285° West 470 541 40,000  Level Anchorage Center
07:08PM 57.1500 -141.1833 282° West 460 529 40,000  Level Anchorage Center
07:09PM 57.1833 -141.4167 285° West 460 529 40,000  Level Anchorage Center
07:10PM 57.2167 -141.6500 285° West 460 529 40,000  Level Anchorage Center
07:11PM 57.2500 -141.8833 285° West 460 529 40,000  Level Anchorage Center
07:12PM 57.2833 -142.1167 285° West 460 529 40,000  Level Anchorage Center
07:13PM 57.3000 -142.3500 278° West 460 529 40,000  Level Anchorage Center
07:14PM 57.3333 -142.5833 285° West 460 529 40,000  Level Anchorage Center
07:15PM 57.3667 -142.8167 285° West 460 529 40,000  Level Anchorage Center
07:16PM 57.3833 -143.0167 279° West 460 529 40,000  Level Anchorage Center
07:17PM 57.4167 -143.2500 285° West 470 541 40,000  Level Anchorage Center
07:18PM 57.4333 -143.5000 277° West 470 541 40,000  Level Anchorage Center
07:20PM 57.4667 -143.7333 285° West 470 541 40,000  Level Anchorage Center
07:21PM 57.4833 -143.9833 277° West 470 541 40,000  Level Anchorage Center
07:22PM 57.5167 -144.2167 285° West 460 529 40,000  Level Anchorage Center
07:23PM 57.5333 -144.4500 278° West 470 541 40,000  Level Anchorage Center
07:24PM 57.5667 -144.7000 284° West 470 541 40,000  Level Anchorage Center
07:25PM 57.5833 -144.9333 278° West 460 529 40,000  Level Anchorage Center
07:26PM 57.6167 -145.1833 284° West 470 541 40,000  Level Anchorage Center
07:27PM 57.6333 -145.4167 278° West 470 541 40,000  Level Anchorage Center
07:28PM 57.6667 -145.6667 284° West 470 541 40,000 -5,520 Level Anchorage Center
07:29PM 57.6833 -145.9000 278° West 460 529 29,000 -5,460 Descending Anchorage Center
07:30PM 57.7000 -146.1500 277° West 470 541 29,000  Level Anchorage Center
07:31PM 57.7333 -146.4000 284° West 470 541 29,000 5,460 Level Anchorage Center
07:32PM 57.7500 -146.6500 277° West 480 552 40,000 1,440 Climbing Anchorage Center
07:38PM 57.8882 -148.2882 277° West 484 557 40,000  Level FlightAware ADS-B (PAEN / ENA)
07:39PM 57.8962 -148.3985 278° West 483 556 40,000  Level FlightAware ADS-B (PAEN / ENA)
07:40PM 57.9225 -148.7756 278° West 486 559 40,000  Level FlightAware ADS-B (PAEN / ENA)
07:40PM 57.9315 -148.9103 277° West 488 562 40,000  Level FlightAware ADS-B (PAEN / ENA)
07:41PM 57.9401 -149.0380 277° West 489 563 40,000  Level FlightAware ADS-B (PAEN / ENA)
07:42PM 57.9529 -149.2332 277° West 490 564 40,000  Level FlightAware ADS-B (PAEN / ENA)
07:42PM 57.9642 -149.4112 277° West 490 564 40,000  Level FlightAware ADS-B (PAEN / ENA)
07:43PM 57.9729 -149.5499 277° West 491 565 40,000  Level FlightAware ADS-B (PAEN / ENA)
07:44PM 57.9840 -149.7297 277° West 492 566 40,000  Level FlightAware ADS-B (PAEN / ENA)
07:44PM 57.9915 -149.8555 276° West 493 567 40,000  Level FlightAware ADS-B (PAEN / ENA)
07:45PM 58.0030 -150.0560 276° West 495 570 40,000  Level FlightAware ADS-B (PAEN / ENA)
07:45PM 58.0079 -150.1897 274° West 494 568 40,000  Level FlightAware ADS-B (PAEN / ENA)
07:46PM 58.0143 -150.3818 274° West 495 570 40,000  Level FlightAware ADS-B (PAEN / ENA)
07:47PM 58.0187 -150.5091 274° West 497 572 40,000  Level FlightAware ADS-B (PAEN / ENA)
07:47PM 58.0231 -150.6386 274° West 498 573 40,000  Level FlightAware ADS-B (PAEN / ENA)
07:48PM 58.0276 -150.7699 274° West 497 572 40,000  Level FlightAware ADS-B (PAEN / ENA)
07:48PM 58.0340 -150.9603 274° West 496 571 40,000  Level FlightAware ADS-B (PAEN / ENA)
07:49PM 58.0383 -151.0931 274° West 498 573 40,000  Level FlightAware ADS-B (PAEN / ENA)
07:50PM 58.0432 -151.2546 273° West 498 573 40,000  Level FlightAware ADS-B (PAEN / ENA)
07:50PM 58.0477 -151.4128 273° West 498 573 40,000  Level FlightAware ADS-B (PAEN / ENA)
07:51PM 58.0531 -151.6080 273° West 499 574 40,000  Level FlightAware ADS-B (PAEN / ENA)
07:51PM 58.0566 -151.7407 273° West 500 575 40,000  Level FlightAware ADS-B (PAEN / ENA)
07:52PM 58.0599 -151.8701 273° West 501 577 40,000  Level FlightAware ADS-B (PAEN / ENA)
07:52PM 58.0631 -152.0023 273° West 501 577 40,000  Level FlightAware ADS-B (PAEN / ENA)
07:53PM 58.0673 -152.1917 273° West 499 574 40,000  Level FlightAware ADS-B (PAEN / ENA)
07:54PM 58.0699 -152.3117 272° West 500 575 40,000  Level FlightAware ADS-B (PAEN / ENA)
07:54PM 58.0741 -152.5209 272° West 502 578 40,000  Level FlightAware ADS-B (PAEN / ENA)
07:55PM 58.0766 -152.6520 272° West 503 579 40,000  Level FlightAware ADS-B (PAEN / ENA)
07:55PM 58.0783 -152.7450 272° West 505 581 40,000  Level FlightAware ADS-B (PAEN / ENA)
07:56PM 58.0812 -152.9167 272° West 507 583 40,000  Level FlightAware ADS-B (PAEN / ENA)
07:57PM 58.0844 -153.1146 272° West 508 585 40,000  Level FlightAware ADS-B (PAEN / ENA)
07:57PM 58.0863 -153.2507 272° West 507 583 40,000  Level FlightAware ADS-B (PAEN / ENA)
07:58PM 58.0888 -153.4461 271° West 509 586 40,000  Level FlightAware ADS-B (PAEN / ENA)
07:58PM 58.0903 -153.5738 271° West 509 586 40,000  Level FlightAware ADS-B (PAEN / ENA)
07:59PM 58.0922 -153.7575 271° West 509 586 40,000  Level FlightAware ADS-B (PAEN / ENA)
08:00PM 58.0937 -153.9152 271° West 509 586 40,000  Level FlightAware ADS-B (PAEN / ENA)
08:00PM 58.0948 -154.0630 271° West 509 586 40,000  Level FlightAware ADS-B (PAEN / ENA)
08:01PM 58.0960 -154.2440 271° West 509 586 40,000  Level FlightAware ADS-B (PAEN / ENA)
08:02PM 58.0968 -154.3824 271° West 510 587 40,000  Level FlightAware ADS-B (PAEN / ENA)
08:02PM 58.0974 -154.5076 271° West 510 587 40,000  Level FlightAware ADS-B (PAEN / ENA)
08:03PM 58.0979 -154.7057 270° West 510 587 40,000  Level FlightAware ADS-B (PAEN / ENA)
08:03PM 58.0982 -154.8445 270° West 511 588 40,000  Level FlightAware ADS-B (PAEN / ENA)
08:04PM 58.0983 -155.0476 270° West 512 589 40,000  Level FlightAware ADS-B (PAEN / ENA)
08:05PM 58.0982 -155.1545 270° West 511 588 40,000  Level FlightAware ADS-B (PAEN / ENA)
08:05PM 58.0978 -155.3727 270° West 511 588 40,000  Level FlightAware ADS-B (PAEN / ENA)
08:06PM 58.0971 -155.5661 270° West 512 589 40,000  Level FlightAware ADS-B (PAEN / ENA)
08:06PM 58.0964 -155.7096 270° West 512 589 40,000  Level FlightAware ADS-B (PAEN / ENA)
08:07PM 58.0950 -155.9158 269° West 514 592 40,000  Level FlightAware ADS-B (PAEN / ENA)
08:08PM 58.0932 -156.1313 269° West 513 590 40,000  Level FlightAware ADS-B (PAEN / ENA)
08:09PM 58.0917 -156.2994 269° West 514 592 40,000  Level FlightAware ADS-B (PAEN / ENA)
08:09PM 58.0907 -156.3898 269° West 513 590 40,000  Level FlightAware ADS-B (PAEN / ENA)
08:10PM 58.0833 -156.5333 269° West 500 575 40,000  Level Anchorage Center
08:11PM 58.0833 -156.8000 270° West 510 587 40,000  Level Anchorage Center
08:12PM 58.0667 -157.0667 263° West 510 587 40,000  Level Anchorage Center
08:14PM 58.0667 -157.6167 270° West 510 587 40,000  Level Anchorage Center
08:15PM 58.0500 -157.8833 263° West 510 587 40,000  Level Anchorage Center
08:16PM 58.0500 -158.1500 270° West 510 587 40,000  Level Anchorage Center
08:17PM 58.0500 -158.4333 270° West 510 587 40,000  Level Anchorage Center
08:18PM 58.0333 -158.7000 263° West 510 587 40,000  Level Anchorage Center
08:19PM 58.0167 -158.9667 263° West 510 587 40,000  Level Anchorage Center
08:20PM 58.0167 -159.2500 270° West 510 587 40,000  Level Anchorage Center
08:21PM 58.0000 -159.5167 263° West 510 587 40,000  Level Anchorage Center
08:22PM 58.0000 -159.7833 270° West 510 587 40,000  Level Anchorage Center
08:23PM 57.9833 -160.0500 263° West 510 587 40,000  Level Anchorage Center
08:24PM 57.9667 -160.3167 263° West 510 587 40,000  Level Anchorage Center
08:25PM 57.9500 -160.6000 264° West 520 598 40,000  Level Anchorage Center
08:26PM 57.9333 -160.8833 264° West 530 610 40,000  Level Anchorage Center
08:27PM 57.9167 -161.1500 263° West 520 598 40,000  Level Anchorage Center
08:28PM 57.9000 -161.4167 263° West 520 598 40,000  Level Anchorage Center
08:29PM 57.8833 -161.7000 264° West 520 598 40,000  Level Anchorage Center
08:30PM 57.8667 -161.9667 263° West 520 598 40,000  Level Anchorage Center
08:31PM 57.8333 -162.2333 257° West 510 587 40,000  Level Anchorage Center
08:32PM 57.8167 -162.5167 264° West 520 598 40,000  Level Anchorage Center
08:33PM 57.8000 -162.8000 264° West 530 610 40,000  Level Anchorage Center
08:34PM 57.7667 -163.0667 257° West 530 610 40,000  Level Anchorage Center
08:35PM 57.7500 -163.3500 264° West 520 598 40,000  Level Anchorage Center
08:36PM 57.7333 -163.6167 263° West 530 610 40,000  Level Anchorage Center
08:37PM 57.7000 -163.9000 258° West 530 610 40,000  Level Anchorage Center
08:38PM 57.6833 -164.1833 264° West 530 610 40,000  Level Anchorage Center
08:39PM 57.6500 -164.5167 260° West 540 621 40,000  Level Anchorage Center
08:40PM 57.6167 -164.8000 258° West 550 633 40,000  Level Anchorage Center
08:41PM 57.5833 -165.0667 257° West 530 610 40,000  Level Anchorage Center
08:42PM 57.5667 -165.3500 264° West 530 610 40,000  Level Anchorage Center
08:44PM 57.5000 -165.8833 257° West 530 610 40,000  Level Anchorage Center
08:45PM 57.4833 -166.1500 263° West 520 598 40,000  Level Anchorage Center
08:46PM 57.4500 -166.4333 258° West 540 621 40,000  Level Anchorage Center
08:47PM 57.4167 -166.7000 257° West 530 610 40,000  Level Anchorage Center
08:48PM 57.3833 -166.9833 258° West 530 610 40,000  Level Anchorage Center
08:49PM 57.3500 -167.2500 257° West 540 621 40,000  Level Anchorage Center
08:50PM 57.3167 -167.5167 257° West 540 621 40,000  Level Anchorage Center
08:51PM 57.2833 -167.8000 258° West 540 621 40,000  Level Anchorage Center
08:52PM 57.2500 -168.0667 257° West 540 621 40,000  Level Anchorage Center
08:53PM 57.2167 -168.3500 258° West 540 621 40,000  Level Anchorage Center
08:54PM 57.1833 -168.6167 257° West 540 621 40,000  Level Anchorage Center
08:55PM 57.1500 -168.8833 257° West 540 621 40,000  Level Anchorage Center
08:56PM 57.1000 -169.1667 252° West 540 621 40,000  Level Anchorage Center
08:57PM 57.0667 -169.4333 257° West 540 621 40,000  Level Anchorage Center
08:59PM 57.0000 -169.9833 258° West 530 610 40,000  Level Anchorage Center
09:00PM 56.9833 -170.2500 264° West 520 598 40,000  Level Anchorage Center
09:01PM 56.9667 -170.5333 264° West 520 598 40,000  Level Anchorage Center
09:02PM 56.9500 -170.8000 264° West 520 598 40,000  Level Anchorage Center
09:03PM 56.9167 -171.0667 257° West 530 610 40,000  Level Anchorage Center
09:04PM 56.9000 -171.3333 264° West 520 598 40,000  Level Anchorage Center
09:05PM 56.8833 -171.6000 264° West 530 610 40,000  Level Anchorage Center
09:06PM 56.8667 -171.8667 264° West 520 598 40,000  Level Anchorage Center
09:07PM 56.8500 -172.1333 264° West 520 598 40,000  Level Anchorage Center
09:08PM 56.8333 -172.4000 264° West 520 598 40,000  Level Anchorage Center
09:09PM 56.8167 -172.6667 264° West 520 598 40,000  Level Anchorage Center
09:10PM 56.7833 -172.9333 257° West 520 598 40,000  Level Anchorage Center
09:11PM 56.7667 -173.2000 264° West 510 587 40,000  Level Anchorage Center
09:13PM 56.7333 -173.6833 261° West 524 603 40,000  Level Anchorage Center
09:14PM 56.7000 -173.9333 261° West 520 598 40,000  Level Anchorage Center
09:15PM 56.6833 -174.1833 263° West 520 598 40,000  Level Anchorage Center
09:16PM 56.6500 -174.4500 257° West 510 587 40,000  Level Anchorage Center
09:17PM 56.6333 -174.7000 263° West 520 598 40,000  Level Anchorage Center
09:18PM 56.6000 -174.9667 257° West 510 587 40,000  Level Anchorage Center
09:19PM 56.5667 -175.2167 256° West 510 587 40,000  Level Anchorage Center
09:20PM 56.5500 -175.4833 264° West 520 598 40,000  Level Anchorage Center
09:21PM 56.5167 -175.7333 257° West 510 587 40,000  Level Anchorage Center
09:22PM 56.5000 -175.9833 263° West 510 587 40,000  Level Anchorage Center
09:23PM 56.4667 -176.2500 257° West 510 587 40,000  Level Anchorage Center
09:24PM 56.4500 -176.4500 262° West 510 587 40,000  Level Anchorage Center
09:25PM 56.4000 -176.7500 253° West 500 575 40,000  Level Anchorage Center
09:33PM 56.2000 -178.5167 257° West 506 582 40,000  Level Anchorage Center
09:39PM 56.0000 180.0000 260° West 496 571 40,000  Level Anchorage Center
09:42PM 55.9167 179.1500 259° West 492 566 40,000  Level Anchorage Center
09:51PM 55.6500 176.9833 257° West 480 552 40,000  Level Anchorage Center
09:52PM 55.6455 176.7999 257° West 492 566 40,000  Level FlightAware Transoceanic
09:52PM 55.6333 176.7833 262° West 470 541 40,000  Level Anchorage Center
09:53PM 55.6159 176.5668 257° West 492 566 40,000  Level FlightAware Transoceanic
09:53PM 55.6000 176.5333 257° West 470 541 40,000  Level Anchorage Center
09:54PM 55.5859 176.3340 257° West 492 566 40,000  Level FlightAware Transoceanic
09:54PM 55.5667 176.3500 252° West 470 541 40,000  Level Anchorage Center
09:55PM 55.5554 176.1015 257° West 492 566 40,000  Level FlightAware Transoceanic
09:55PM 55.5333 176.1000 257° West 470 541 40,000  Level Anchorage Center
09:56PM 55.5245 175.8694 257° West 492 566 40,000  Level FlightAware Transoceanic
09:56PM 55.5167 175.9000 262° West 470 541 40,000  Level Anchorage Center
09:57PM 55.4833 175.6500 257° West 480 552 40,000  Level Anchorage Center
09:58PM 55.4500 175.4000 257° West 480 552 40,000  Level Anchorage Center
09:59PM 55.4167 175.1833 255° West 490 564 40,000  Level Anchorage Center
10:00PM 55.3833 174.9333 257° West 490 564 40,000  Level Anchorage Center
10:01PM 55.3500 174.7333 254° West 490 564 40,000  Level Anchorage Center
10:02PM 55.3167 174.4833 257° West 490 564 40,000  Level Anchorage Center
10:03PM 55.2833 174.2833 254° West 490 564 40,000  Level Anchorage Center
10:04PM 55.2500 174.0333 257° West 490 564 40,000  Level Anchorage Center
10:05PM 55.2167 173.7667 258° West 490 564 40,000  Level Anchorage Center
10:06PM 55.1833 173.5833 252° West 490 564 40,000  Level Anchorage Center
10:07PM 55.1500 173.3333 257° West 480 552 40,000  Level Anchorage Center
10:08PM 55.1167 173.1333 254° West 480 552 40,000  Level Anchorage Center
10:09PM 55.0667 172.8833 251° West 480 552 40,000  Level Anchorage Center
10:10PM 55.0333 172.7000 252° West 470 541 40,000  Level Anchorage Center
10:11PM 55.0000 172.4500 257° West 500 575 40,000  Level Anchorage Center
10:12PM 54.9667 172.2500 254° West 470 541 40,000  Level Anchorage Center
10:13PM 54.9333 172.0167 256° West 470 541 40,000  Level Anchorage Center
10:14PM 54.8500 171.8000 236° Southwest 470 541 40,000  Level Anchorage Center
10:15PM 54.7833 171.6500 232° Southwest 470 541 40,000  Level Anchorage Center
10:16PM 54.7000 171.4333 236° Southwest 480 552 40,000  Level Anchorage Center
10:17PM 54.6333 171.2667 235° Southwest 490 564 40,000  Level Anchorage Center
10:18PM 54.5500 171.0667 234° Southwest 490 564 40,000  Level Anchorage Center
10:19PM 54.4833 170.9000 235° Southwest 480 552 40,000  Level Anchorage Center
10:20PM 54.3833 170.7000 229° Southwest 480 552 40,000  Level Anchorage Center
10:21PM 54.3000 170.5000 235° Southwest 490 564 40,000  Level Anchorage Center
10:22PM 54.2333 170.3333 236° Southwest 480 552 40,000  Level Anchorage Center
10:23PM 54.1500 170.1333 235° Southwest 490 564 40,000  Level Anchorage Center
10:24PM 54.0667 169.9833 227° Southwest 480 552 40,000  Level Anchorage Center
10:25PM 53.9833 169.7833 235° Southwest 470 541 40,000  Level Anchorage Center
10:26PM 53.9167 169.6333 233° Southwest 470 541 40,000  Level Anchorage Center
10:27PM 53.8333 169.4333 235° Southwest 470 541 40,000  Level Anchorage Center
10:28PM 53.7500 169.2500 232° Southwest 490 564 40,000  Level Anchorage Center
10:29PM 53.6833 169.0833 236° Southwest 480 552 40,000  Level Anchorage Center
10:30PM 53.6167 168.8667 243° Southwest 490 564 40,000  Level Anchorage Center
10:31PM 53.5667 168.7000 243° Southwest 470 541 40,000  Level Anchorage Center
10:34PM 53.4167 168.2333 240° Southwest 471 542 40,000  Level Anchorage Center
10:41PM 53.0167 167.1167 239° Southwest 473 544 40,000 60 Level Anchorage Center
10:49PM 52.3333 165.3333 238° Southwest 482 555 41,000  Climbing Anchorage Center
10:58PM 51.6500 163.6500 236° Southwest 480 552 41,000  Level Anchorage Center
10:59PM 51.6173 163.5544 236° Southwest 482 555 41,000  Level FlightAware Transoceanic
10:59PM 51.6333 163.5833 236° Southwest 480 552 41,000  Level Anchorage Center
11:08PM 50.9167 161.9167 235° Southwest 483 556 41,000  Level Anchorage Center
11:17PM 50.2000 160.3833 234° Southwest 472 543 41,000  Level Anchorage Center
11:18PM 50.1667 160.3000 234° Southwest 476 548 41,000  Level Anchorage Center
11:19PM 50.1229 160.1912 233° Southwest 483 556 41,000  Level FlightAware Transoceanic
11:20PM 50.0421 160.0218 233° Southwest 483 556 41,000  Level FlightAware Transoceanic
11:21PM 49.9611 159.8530 233° Southwest 483 556 41,000  Level FlightAware Transoceanic
11:22PM 49.8799 159.6848 233° Southwest 483 556 41,000  Level FlightAware Transoceanic
11:23PM 49.7984 159.5171 233° Southwest 483 556 41,000  Level FlightAware Transoceanic
11:24PM 49.7167 159.3500 233° Southwest 472 543 41,000  Level FlightAware Transoceanic
11:25PM 49.6394 159.1923 233° Southwest 476 548 41,000  Level FlightAware Transoceanic
11:26PM 49.5619 159.0351 233° Southwest 476 548 41,000  Level FlightAware Transoceanic
11:27PM 49.4843 158.8784 233° Southwest 476 548 41,000  Level FlightAware Transoceanic
11:28PM 49.4064 158.7222 232° Southwest 476 548 41,000  Level FlightAware Transoceanic
11:29PM 49.3283 158.5665 232° Southwest 476 548 41,000  Level FlightAware Transoceanic
11:30PM 49.2500 158.4113 232° Southwest 476 548 41,000  Level FlightAware Transoceanic
11:31PM 49.1714 158.2565 232° Southwest 476 548 41,000  Level FlightAware Transoceanic
11:32PM 49.0927 158.1023 232° Southwest 476 548 41,000  Level FlightAware Transoceanic
11:33PM 49.0138 157.9485 232° Southwest 476 548 41,000  Level FlightAware Transoceanic
11:34PM 48.9347 157.7953 232° Southwest 476 548 41,000  Level FlightAware Transoceanic
11:35PM 48.8553 157.6425 232° Southwest 476 548 41,000  Level FlightAware Transoceanic
11:36PM 48.7758 157.4902 232° Southwest 476 548 41,000  Level FlightAware Transoceanic
11:37PM 48.6960 157.3384 231° Southwest 476 548 41,000  Level FlightAware Transoceanic
11:38PM 48.6161 157.1871 231° Southwest 476 548 41,000  Level FlightAware Transoceanic
11:39PM 48.5360 157.0362 231° Southwest 476 548 41,000  Level FlightAware Transoceanic
11:40PM 48.4557 156.8859 231° Southwest 476 548 41,000  Level FlightAware Transoceanic
11:41PM 48.3751 156.7360 231° Southwest 476 548 41,000  Level FlightAware Transoceanic
11:42PM 48.2944 156.5865 231° Southwest 476 548 41,000  Level FlightAware Transoceanic
11:43PM 48.2135 156.4376 231° Southwest 476 548 41,000  Level FlightAware Transoceanic
11:44PM 48.1324 156.2891 231° Southwest 476 548 41,000  Level FlightAware Transoceanic
11:45PM 48.0511 156.1411 231° Southwest 476 548 41,000  Level FlightAware Transoceanic
11:46PM 47.9696 155.9936 230° Southwest 476 548 41,000  Level FlightAware Transoceanic
11:47PM 47.8880 155.8465 230° Southwest 476 548 41,000  Level FlightAware Transoceanic
11:48PM 47.8061 155.6999 230° Southwest 476 548 41,000  Level FlightAware Transoceanic
11:49PM 47.7240 155.5537 230° Southwest 476 548 41,000  Level FlightAware Transoceanic
11:50PM 47.6418 155.4080 230° Southwest 476 548 41,000  Level FlightAware Transoceanic
11:51PM 47.5594 155.2628 230° Southwest 476 548 41,000  Level FlightAware Transoceanic
11:52PM 47.4768 155.1180 230° Southwest 476 548 41,000  Level FlightAware Transoceanic
11:53PM 47.3940 154.9737 230° Southwest 476 548 41,000  Level FlightAware Transoceanic
11:54PM 47.3111 154.8298 230° Southwest 476 548 41,000  Level FlightAware Transoceanic
11:55PM 47.2279 154.6864 229° Southwest 476 548 41,000  Level FlightAware Transoceanic
11:56PM 47.1446 154.5435 229° Southwest 476 548 41,000  Level FlightAware Transoceanic
11:57PM 47.0611 154.4009 229° Southwest 476 548 41,000  Level FlightAware Transoceanic
11:58PM 46.9775 154.2589 229° Southwest 476 548 41,000  Level FlightAware Transoceanic
11:59PM 46.8936 154.1172 229° Southwest 476 548 41,000  Level FlightAware Transoceanic
12:00AM 46.8096 153.9760 229° Southwest 476 548 41,000  Level FlightAware Transoceanic
12:01AM 46.7254 153.8353 229° Southwest 476 548 41,000  Level FlightAware Transoceanic
12:02AM 46.6410 153.6950 229° Southwest 476 548 41,000  Level FlightAware Transoceanic
12:03AM 46.5565 153.5551 229° Southwest 476 548 41,000  Level FlightAware Transoceanic
12:04AM 46.4718 153.4157 229° Southwest 476 548 41,000  Level FlightAware Transoceanic
12:05AM 46.3869 153.2767 228° Southwest 476 548 41,000  Level FlightAware Transoceanic
12:06AM 46.3019 153.1381 228° Southwest 476 548 41,000 -240 Level FlightAware Transoceanic
12:07AM 46.2192 153.0040 228° Southwest  Level FlightAware Approximate
12:08AM 46.1364 152.8702 228° Southwest  Level FlightAware Approximate
12:09AM 46.1392 152.8765 228° Southwest  Level FlightAware Approximate
12:10AM 46.0565 152.7454 228° Southwest  Level FlightAware Approximate
12:11AM 45.9737 152.6147 228° Southwest  Level FlightAware Approximate
12:12AM 45.8907 152.4844 228° Southwest  Level FlightAware Approximate
12:13AM 45.8076 152.3545 227° Southwest  Level FlightAware Approximate
12:14AM 45.7243 152.2249 227° Southwest  Level FlightAware Approximate
12:15AM 45.6409 152.0958 227° Southwest  Level FlightAware Approximate
12:16AM 45.5571 151.9666 227° Southwest  Level FlightAware Approximate
12:17AM 45.4731 151.8379 227° Southwest  Level FlightAware Approximate
12:18AM 45.3890 151.7095 227° Southwest  Level FlightAware Approximate
12:19AM 45.3048 151.5815 227° Southwest  Level FlightAware Approximate
12:20AM 45.2204 151.4539 227° Southwest  Level FlightAware Approximate
12:21AM 45.1359 151.3267 227° Southwest  Level FlightAware Approximate
12:22AM 45.0513 151.1998 227° Southwest  Level FlightAware Approximate
12:23AM 44.9665 151.0733 227° Southwest  Level FlightAware Approximate
12:24AM 44.8815 150.9472 226° Southwest  Level FlightAware Approximate
12:25AM 44.7964 150.8215 226° Southwest  Level FlightAware Approximate
12:26AM 44.7112 150.6961 226° Southwest  Level FlightAware Approximate
12:27AM 44.6259 150.5711 226° Southwest  Level FlightAware Approximate
12:28AM 44.5401 150.4469 226° Southwest  Level FlightAware Approximate
12:29AM 44.4540 150.3233 226° Southwest  Level FlightAware Approximate
12:30AM 44.3679 150.2000 226° Southwest  Level FlightAware Approximate
12:31AM 44.2815 150.0770 226° Southwest  Level FlightAware Approximate
12:32AM 44.1951 149.9544 225° Southwest  Level FlightAware Approximate
12:33AM 44.1085 149.8322 225° Southwest  Level FlightAware Approximate
12:34AM 44.0222 149.7098 226° Southwest  Level FlightAware Approximate
12:35AM 43.9366 149.5866 226° Southwest  Level FlightAware Approximate
12:36AM 43.8508 149.4638 226° Southwest  Level FlightAware Approximate
12:37AM 43.7650 149.3413 226° Southwest  Level FlightAware Approximate
12:38AM 43.6790 149.2191 226° Southwest  Level FlightAware Approximate
12:39AM 43.5928 149.0974 226° Southwest  Level FlightAware Approximate
12:40AM 43.5066 148.9759 226° Southwest  Level FlightAware Approximate
12:41AM 43.4195 148.8558 225° Southwest  Level FlightAware Approximate
12:42AM 43.3322 148.7361 225° Southwest  Level FlightAware Approximate
12:43AM 43.2448 148.6167 225° Southwest  Level FlightAware Approximate
12:44AM 43.1573 148.4977 225° Southwest  Level FlightAware Approximate
12:45AM 43.0697 148.3790 225° Southwest  Level FlightAware Approximate
12:46AM 42.9819 148.2607 225° Southwest  Level FlightAware Approximate
12:47AM 42.8940 148.1427 225° Southwest  Level FlightAware Approximate
12:48AM 42.8060 148.0250 224° Southwest  Level FlightAware Approximate
12:49AM 42.7179 147.9077 224° Southwest  Level FlightAware Approximate
12:50AM 42.6296 147.7907 224° Southwest  Level FlightAware Approximate
12:51AM 42.5413 147.6740 224° Southwest  Level FlightAware Approximate
12:52AM 42.4532 147.5582 224° Southwest  Level FlightAware Approximate
12:53AM 42.3652 147.4424 225° Southwest  Level FlightAware Approximate
12:54AM 42.2777 147.3259 225° Southwest  Level FlightAware Approximate
12:55AM 42.1902 147.2098 225° Southwest  Level FlightAware Approximate
12:56AM 42.1025 147.0940 224° Southwest  Level FlightAware Approximate
12:57AM 42.0148 146.9785 224° Southwest  Level FlightAware Approximate
12:58AM 41.9268 146.8632 224° Southwest  Level FlightAware Approximate
12:59AM 41.8380 146.7490 224° Southwest  Level FlightAware Approximate
01:00AM 41.7491 146.6353 224° Southwest  Level FlightAware Approximate
01:01AM 41.6601 146.5218 224° Southwest  Level FlightAware Approximate
01:02AM 41.5709 146.4087 224° Southwest  Level FlightAware Approximate
01:03AM 41.4817 146.2959 223° Southwest  Level FlightAware Approximate
01:04AM 41.3923 146.1834 223° Southwest  Level FlightAware Approximate
01:05AM 41.3028 146.0712 223° Southwest  Level FlightAware Approximate
01:06AM 41.2133 145.9593 223° Southwest  Level FlightAware Approximate
01:07AM 41.1236 145.8477 223° Southwest  Level FlightAware Approximate
01:08AM 41.0338 145.7365 223° Southwest  Level FlightAware Approximate
01:09AM 40.9439 145.6255 223° Southwest  Level FlightAware Approximate
01:10AM 40.8539 145.5148 223° Southwest  Level FlightAware Approximate
01:11AM 40.7637 145.4044 223° Southwest  Level FlightAware Approximate
01:12AM 40.6735 145.2944 223° Southwest  Level FlightAware Approximate
01:13AM 40.5832 145.1846 223° Southwest  Level FlightAware Approximate
01:14AM 40.4927 145.0751 223° Southwest  Level FlightAware Approximate
01:15AM 40.4022 144.9659 223° Southwest  Level FlightAware Approximate
01:16AM 40.3116 144.8570 223° Southwest  Level FlightAware Approximate
01:17AM 40.2210 144.7483 222° Southwest  Level FlightAware Approximate
01:18AM 40.1302 144.6399 222° Southwest  Level FlightAware Approximate
01:19AM 40.0393 144.5318 222° Southwest  Level FlightAware Approximate
01:20AM 39.9483 144.4240 222° Southwest  Level FlightAware Approximate
01:21AM 39.8572 144.3165 222° Southwest  Level FlightAware Approximate
01:22AM 39.7660 144.2093 222° Southwest  Level FlightAware Approximate
01:23AM 39.6747 144.1023 222° Southwest  Level FlightAware Approximate
01:24AM 39.5834 143.9957 222° Southwest  Level FlightAware Approximate
01:25AM 39.4919 143.8893 222° Southwest  Level FlightAware Approximate
01:26AM 39.4003 143.7832 222° Southwest  Level FlightAware Approximate
01:27AM 39.3086 143.6774 222° Southwest  Level FlightAware Approximate
01:28AM 39.2169 143.5718 222° Southwest  Level FlightAware Approximate
01:29AM 39.1245 143.4673 221° Southwest  Level FlightAware Approximate
01:30AM 39.0317 143.3635 221° Southwest  Level FlightAware Approximate
01:31AM 38.9389 143.2599 221° Southwest  Level FlightAware Approximate
01:32AM 38.8316 143.1902 197° South  Level FlightAware Approximate
01:33AM 38.7139 143.1449 197° South  Level FlightAware Approximate
01:34AM 38.5962 143.0997 197° South  Level FlightAware Approximate
01:35AM 38.4784 143.0547 197° South  Level FlightAware Approximate
01:36AM 38.3607 143.0099 197° South  Level FlightAware Approximate
01:37AM 38.2429 142.9651 197° South  Level FlightAware Approximate
01:38AM 38.1252 142.9205 197° South  Level FlightAware Approximate
01:39AM 38.0074 142.8761 197° South  Level FlightAware Approximate
01:40AM 37.8896 142.8318 197° South  Level FlightAware Approximate
01:41AM 37.7717 142.7876 197° South  Level FlightAware Approximate
01:42AM 37.6539 142.7436 196° South  Level FlightAware Approximate
01:43AM 37.5360 142.6997 196° South  Level FlightAware Approximate
01:44AM 37.4182 142.6560 196° South  Level FlightAware Approximate
01:45AM 37.3003 142.6124 196° South  Level FlightAware Approximate
01:46AM 37.1810 142.5759 197° South  Level FlightAware Approximate
01:47AM 37.0638 142.5298 197° South  Level FlightAware Approximate
01:48AM 36.9498 142.4852 197° South  Level FlightAware Approximate
01:49AM 36.8358 142.4408 197° South  Level FlightAware Approximate
01:50AM 36.7206 142.4012 195° South  Level FlightAware Approximate
01:51AM 36.6052 142.3628 195° South  Level FlightAware Approximate
01:52AM 36.4909 142.3197 198° South  Level FlightAware Approximate
01:53AM 36.3757 142.2807 195° South  Level FlightAware Approximate
01:54AM 36.2604 142.2423 195° South  Level FlightAware Approximate
01:55AM 36.1450 142.2039 195° South  Level FlightAware Approximate
01:56AM 36.0327 142.1621 260° West  Level FlightAware Approximate
01:57AM 36.0071 142.0135 252° West  Level FlightAware Approximate
01:58AM 35.9691 141.8689 252° West  Level FlightAware Approximate
01:59AM 35.9311 141.7243 253° West  Level FlightAware Approximate
02:00AM 35.8986 141.5782 265° West  Level FlightAware Approximate
02:01AM 35.8885 141.4268 265° West  Level FlightAware Approximate
02:02AM 35.8712 141.2767 258° West  Level FlightAware Approximate
02:03AM 35.8473 141.1278 261° West  Level FlightAware Approximate
02:04AM 35.8285 140.9778 261° West  Level FlightAware Approximate
02:05AM 35.8160 140.8272 262° West  Level FlightAware Approximate
02:06AM 35.7990 140.6774 258° West  Level FlightAware Approximate
02:07AM 35.7744 140.5299 258° West  Level FlightAware Approximate
02:08AM 35.7500 140.3834 253° West  Level FlightAware Approximate
02:09AM 35.7647 140.3864 253° West  Level Estimated
02:10AM 35.7647 140.3864 253° West  Level Estimated
02:11AM 35.7647 140.3864 253° West  Level Estimated
02:12AM 35.7647 140.3864 253° West  Level Estimated
02:13AM 35.7647 140.3864 253° West  Level Estimated
02:14AM 35.7647 140.3864 253° West  Level Estimated
02:15AM 35.7647 140.3864 253° West  Level Estimated
02:16AM 35.7647 140.3864 253° West  Level Estimated
02:17AM 35.7647 140.3864 253° West  Level Estimated
02:18AM 35.7647 140.3864 253° West  Level Estimated
02:19AM 35.7647 140.3864 253° West  Level Estimated
02:20AM 35.7647 140.3864 253° West  Level Estimated
02:21AM 35.7647 140.3864 253° West  Level Estimated
02:22AM 35.7647 140.3864 253° West  Level Estimated
02:23AM 35.7647 140.3864 253° West  Level Estimated
02:24AM 35.7647 140.3864 253° West  Level Estimated
02:25AM 35.7647 140.3864 253° West  Level Estimated
02:26AM 35.7647 140.3864 253° West  Level Estimated
02:27AM 35.7647 140.3864 253° West  Level Estimated
02:28AM 35.7647 140.3864 253° West  Level Estimated
02:29AM 35.7647 140.3864 253° West  Level Estimated
02:30AM 35.7647 140.3864 253° West  Level Estimated
02:31AM 35.7647 140.3864 253° West  Level Estimated
02:32AM 35.7647 140.3864 253° West  Level Estimated
02:33AM 35.7647 140.3864 253° West  Level Estimated
02:34AM 35.7647 140.3864 253° West  Level Estimated
02:35AM 35.7647 140.3864 253° West  Level Estimated
02:36AM 35.7647 140.3864 253° West  Level Estimated
02:37AM 35.7647 140.3864 253° West  Level Estimated
02:38AM 35.7647 140.3864 253° West  Level Estimated
02:39AM 35.7647 140.3864 253° West  Level Estimated
02:40AM 35.7647 140.3864 253° West  Level Estimated
02:41AM 35.7647 140.3864 253° West  Level Estimated
02:42AM 35.7647 140.3864 253° West  Level Estimated
02:43AM 35.7647 140.3864 253° West  Level Estimated
02:44AM 35.7647 140.3864 253° West  Level Estimated
02:45AM 35.7647 140.3864 253° West  Level Estimated
02:46AM 35.7647 140.3864 253° West  Level Estimated
02:47AM 35.7647 140.3864 253° West  Level Estimated
02:48AM 35.7647 140.3864 253° West  Level Estimated
02:49AM 35.7647 140.3864 253° West  Level Estimated
02:50AM 35.7647 140.3864 253° West  Level Estimated
02:51AM 35.7647 140.3864 253° West  Level Estimated
02:52AM 35.7647 140.3864 253° West  Level Estimated
02:53AM 35.7647 140.3864 253° West  Level Estimated
02:54AM 35.7647 140.3864 253° West  Level Estimated
02:55AM 35.7647 140.3864 253° West  Level Estimated
02:56AM 35.7647 140.3864 253° West  Level Estimated
02:57AM 35.7647 140.3864 253° West  Level Estimated
02:58AM 35.7647 140.3864 253° West  Level Estimated
02:59AM 35.7647 140.3864 253° West  Level Estimated
03:00AM 35.7647 140.3864 253° West  Level Estimated
03:01AM 35.7647 140.3864 253° West  Level Estimated
03:02AM 35.7647 140.3864 253° West  Level Estimated
03:03AM 35.7647 140.3864 253° West  Level Estimated
03:04AM 35.7647 140.3864 253° West  Level Estimated
03:05AM 35.7647 140.3864 253° West  Level Estimated
03:06AM 35.7647 140.3864 253° West  Level Estimated
03:07AM 35.7647 140.3864 253° West  Level Estimated
03:08AM 35.7647 140.3864 253° West  Level Estimated
03:08AM 35.3366 140.3938 253° West 219 252 6,200  Level FlightAware ADS-B (RJTF)
03:16AM 35.2495 140.1000 338° Northwest 155 178 4,200 -240 Descending FlightAware ADS-B (RJTF)
03:18AM 35.3857 139.9142 312° West 139 160 3,900 -300 Descending FlightAware ADS-B (RJTF)
03:18AM 35.3917 139.9101 331° Northwest 137 158 3,700 -840 Descending FlightAware ADS-B (RJTF)
03:19AM 35.4250 139.8863 330° Northwest 141 162 2,900 -1,080 Descending FlightAware ADS-B (RJTF)
03:19AM 35.4345 139.8796 330° Northwest 138 159 2,400 -1,920 Descending FlightAware ADS-B (RJTF)